sensor_id;sensor_type;location;lat;lon;timestamp;P1;durP1;ratioP1;P2;durP2;ratioP2
75191;SDS011;63771;52.580;9.734;2023-04-07T00:01:55;8.97;;;7.57;;
75191;SDS011;63771;52.580;9.734;2023-04-07T00:04:20;9.83;;;7.67;;
75191;SDS011;63771;52.580;9.734;2023-04-07T00:06:46;10.33;;;8.17;;
75191;SDS011;63771;52.580;9.734;2023-04-07T00:09:11;10.32;;;9.30;;
75191;SDS011;63771;52.580;9.734;2023-04-07T00:11:36;10.03;;;8.40;;
75191;SDS011;63771;52.580;9.734;2023-04-07T00:14:02;12.27;;;8.45;;
75191;SDS011;63771;52.580;9.734;2023-04-07T00:16:28;13.75;;;9.07;;
75191;SDS011;63771;52.580;9.734;2023-04-07T00:18:53;11.53;;;8.63;;
75191;SDS011;63771;52.580;9.734;2023-04-07T00:21:18;11.37;;;8.13;;
75191;SDS011;63771;52.580;9.734;2023-04-07T00:23:43;8.87;;;7.97;;
75191;SDS011;63771;52.580;9.734;2023-04-07T00:26:09;11.17;;;8.33;;
75191;SDS011;63771;52.580;9.734;2023-04-07T00:28:34;11.40;;;8.67;;
75191;SDS011;63771;52.580;9.734;2023-04-07T00:30:59;11.30;;;7.93;;
75191;SDS011;63771;52.580;9.734;2023-04-07T00:33:25;9.02;;;8.13;;
75191;SDS011;63771;52.580;9.734;2023-04-07T00:35:50;11.65;;;8.30;;
75191;SDS011;63771;52.580;9.734;2023-04-07T00:38:16;10.20;;;7.90;;
75191;SDS011;63771;52.580;9.734;2023-04-07T00:40:41;11.05;;;8.68;;
75191;SDS011;63771;52.580;9.734;2023-04-07T00:43:06;11.88;;;9.10;;
75191;SDS011;63771;52.580;9.734;2023-04-07T00:45:32;12.03;;;9.03;;
75191;SDS011;63771;52.580;9.734;2023-04-07T00:47:57;10.27;;;7.80;;
75191;SDS011;63771;52.580;9.734;2023-04-07T00:50:23;9.95;;;7.55;;
75191;SDS011;63771;52.580;9.734;2023-04-07T00:52:48;12.65;;;9.52;;
75191;SDS011;63771;52.580;9.734;2023-04-07T00:55:14;9.77;;;8.77;;
75191;SDS011;63771;52.580;9.734;2023-04-07T00:57:40;11.82;;;8.38;;
75191;SDS011;63771;52.580;9.734;2023-04-07T01:00:06;14.18;;;8.95;;
75191;SDS011;63771;52.580;9.734;2023-04-07T01:02:51;12.13;;;8.77;;
75191;SDS011;63771;52.580;9.734;2023-04-07T01:05:30;11.43;;;8.48;;
75191;SDS011;63771;52.580;9.734;2023-04-07T01:08:16;11.48;;;9.88;;
75191;SDS011;63771;52.580;9.734;2023-04-07T01:10:49;9.45;;;8.10;;
75191;SDS011;63771;52.580;9.734;2023-04-07T01:13:21;9.20;;;7.78;;
75191;SDS011;63771;52.580;9.734;2023-04-07T01:16:08;10.10;;;9.10;;
75191;SDS011;63771;52.580;9.734;2023-04-07T01:18:37;10.63;;;9.35;;
75191;SDS011;63771;52.580;9.734;2023-04-07T01:21:12;10.63;;;8.80;;
75191;SDS011;63771;52.580;9.734;2023-04-07T01:23:51;10.32;;;8.95;;
75191;SDS011;63771;52.580;9.734;2023-04-07T01:26:39;10.32;;;8.38;;
75191;SDS011;63771;52.580;9.734;2023-04-07T01:31:40;9.52;;;8.52;;
75191;SDS011;63771;52.580;9.734;2023-04-07T01:34:09;10.27;;;8.80;;
75191;SDS011;63771;52.580;9.734;2023-04-07T01:36:36;10.65;;;8.73;;
75191;SDS011;63771;52.580;9.734;2023-04-07T01:39:01;10.32;;;8.60;;
75191;SDS011;63771;52.580;9.734;2023-04-07T01:41:27;11.95;;;9.27;;
75191;SDS011;63771;52.580;9.734;2023-04-07T01:43:55;11.82;;;10.02;;
75191;SDS011;63771;52.580;9.734;2023-04-07T01:46:21;12.60;;;9.32;;
75191;SDS011;63771;52.580;9.734;2023-04-07T01:48:47;13.77;;;9.37;;
75191;SDS011;63771;52.580;9.734;2023-04-07T01:51:13;10.98;;;9.60;;
75191;SDS011;63771;52.580;9.734;2023-04-07T01:53:43;10.60;;;9.05;;
75191;SDS011;63771;52.580;9.734;2023-04-07T01:56:10;10.43;;;8.75;;
75191;SDS011;63771;52.580;9.734;2023-04-07T01:58:35;10.57;;;9.43;;
75191;SDS011;63771;52.580;9.734;2023-04-07T02:01:01;12.10;;;10.68;;
75191;SDS011;63771;52.580;9.734;2023-04-07T02:04:10;11.00;;;9.10;;
75191;SDS011;63771;52.580;9.734;2023-04-07T02:06:38;10.90;;;9.68;;
75191;SDS011;63771;52.580;9.734;2023-04-07T02:09:07;11.60;;;9.70;;
75191;SDS011;63771;52.580;9.734;2023-04-07T02:11:37;12.70;;;10.55;;
75191;SDS011;63771;52.580;9.734;2023-04-07T02:14:04;11.27;;;9.82;;
75191;SDS011;63771;52.580;9.734;2023-04-07T02:16:32;12.65;;;10.50;;
75191;SDS011;63771;52.580;9.734;2023-04-07T02:18:58;10.98;;;9.85;;
75191;SDS011;63771;52.580;9.734;2023-04-07T02:21:24;12.80;;;10.55;;
75191;SDS011;63771;52.580;9.734;2023-04-07T02:23:51;12.18;;;9.88;;
75191;SDS011;63771;52.580;9.734;2023-04-07T02:26:16;13.10;;;10.07;;
75191;SDS011;63771;52.580;9.734;2023-04-07T02:28:42;9.97;;;9.07;;
75191;SDS011;63771;52.580;9.734;2023-04-07T02:31:07;12.02;;;9.18;;
75191;SDS011;63771;52.580;9.734;2023-04-07T02:33:32;10.63;;;9.52;;
75191;SDS011;63771;52.580;9.734;2023-04-07T02:35:58;10.63;;;9.30;;
75191;SDS011;63771;52.580;9.734;2023-04-07T02:38:23;11.93;;;9.97;;
75191;SDS011;63771;52.580;9.734;2023-04-07T02:40:48;13.00;;;9.80;;
75191;SDS011;63771;52.580;9.734;2023-04-07T02:43:14;13.13;;;10.38;;
75191;SDS011;63771;52.580;9.734;2023-04-07T02:45:40;11.43;;;9.88;;
75191;SDS011;63771;52.580;9.734;2023-04-07T02:48:05;11.60;;;10.30;;
75191;SDS011;63771;52.580;9.734;2023-04-07T02:50:31;11.60;;;10.17;;
75191;SDS011;63771;52.580;9.734;2023-04-07T02:52:56;13.47;;;10.13;;
75191;SDS011;63771;52.580;9.734;2023-04-07T02:55:21;11.47;;;10.07;;
75191;SDS011;63771;52.580;9.734;2023-04-07T02:57:47;13.97;;;10.63;;
75191;SDS011;63771;52.580;9.734;2023-04-07T03:00:13;12.23;;;9.80;;
75191;SDS011;63771;52.580;9.734;2023-04-07T03:02:39;12.75;;;10.18;;
75191;SDS011;63771;52.580;9.734;2023-04-07T03:05:05;11.80;;;10.38;;
75191;SDS011;63771;52.580;9.734;2023-04-07T03:07:30;15.23;;;9.98;;
75191;SDS011;63771;52.580;9.734;2023-04-07T03:09:56;11.63;;;10.43;;
75191;SDS011;63771;52.580;9.734;2023-04-07T03:12:21;14.75;;;10.18;;
75191;SDS011;63771;52.580;9.734;2023-04-07T03:14:46;10.87;;;9.50;;
75191;SDS011;63771;52.580;9.734;2023-04-07T03:17:12;12.30;;;11.00;;
75191;SDS011;63771;52.580;9.734;2023-04-07T03:19:37;16.03;;;10.27;;
75191;SDS011;63771;52.580;9.734;2023-04-07T03:22:02;15.10;;;11.23;;
75191;SDS011;63771;52.580;9.734;2023-04-07T03:24:28;14.63;;;10.70;;
75191;SDS011;63771;52.580;9.734;2023-04-07T03:26:53;13.50;;;10.02;;
75191;SDS011;63771;52.580;9.734;2023-04-07T03:29:18;12.47;;;10.37;;
75191;SDS011;63771;52.580;9.734;2023-04-07T03:31:43;14.23;;;9.90;;
75191;SDS011;63771;52.580;9.734;2023-04-07T03:34:09;18.25;;;11.18;;
75191;SDS011;63771;52.580;9.734;2023-04-07T03:36:35;12.52;;;9.65;;
75191;SDS011;63771;52.580;9.734;2023-04-07T03:39:00;16.13;;;10.25;;
75191;SDS011;63771;52.580;9.734;2023-04-07T03:41:25;13.43;;;10.93;;
75191;SDS011;63771;52.580;9.734;2023-04-07T03:43:51;12.27;;;9.93;;
75191;SDS011;63771;52.580;9.734;2023-04-07T03:46:17;14.37;;;10.67;;
75191;SDS011;63771;52.580;9.734;2023-04-07T03:48:44;11.60;;;9.82;;
75191;SDS011;63771;52.580;9.734;2023-04-07T03:51:09;15.67;;;11.10;;
75191;SDS011;63771;52.580;9.734;2023-04-07T03:53:34;13.40;;;10.53;;
75191;SDS011;63771;52.580;9.734;2023-04-07T03:55:59;14.47;;;11.27;;
75191;SDS011;63771;52.580;9.734;2023-04-07T03:58:25;14.17;;;10.20;;
75191;SDS011;63771;52.580;9.734;2023-04-07T04:00:50;13.80;;;10.37;;
75191;SDS011;63771;52.580;9.734;2023-04-07T04:03:15;12.00;;;10.47;;
75191;SDS011;63771;52.580;9.734;2023-04-07T04:05:41;11.00;;;9.83;;
75191;SDS011;63771;52.580;9.734;2023-04-07T04:08:06;11.93;;;10.25;;
75191;SDS011;63771;52.580;9.734;2023-04-07T04:10:31;13.07;;;10.37;;
75191;SDS011;63771;52.580;9.734;2023-04-07T04:12:57;12.23;;;9.73;;
75191;SDS011;63771;52.580;9.734;2023-04-07T04:15:25;11.68;;;9.80;;
75191;SDS011;63771;52.580;9.734;2023-04-07T04:17:50;13.82;;;10.15;;
75191;SDS011;63771;52.580;9.734;2023-04-07T04:20:15;14.33;;;9.87;;
75191;SDS011;63771;52.580;9.734;2023-04-07T04:22:41;14.90;;;10.50;;
75191;SDS011;63771;52.580;9.734;2023-04-07T04:25:06;13.20;;;10.23;;
75191;SDS011;63771;52.580;9.734;2023-04-07T04:27:32;13.30;;;10.23;;
75191;SDS011;63771;52.580;9.734;2023-04-07T04:29:57;15.73;;;10.57;;
75191;SDS011;63771;52.580;9.734;2023-04-07T04:32:22;15.83;;;10.97;;
75191;SDS011;63771;52.580;9.734;2023-04-07T04:34:48;13.93;;;10.80;;
75191;SDS011;63771;52.580;9.734;2023-04-07T04:37:13;12.53;;;9.40;;
75191;SDS011;63771;52.580;9.734;2023-04-07T04:39:38;13.70;;;10.53;;
75191;SDS011;63771;52.580;9.734;2023-04-07T04:42:04;15.73;;;11.18;;
75191;SDS011;63771;52.580;9.734;2023-04-07T04:44:30;15.68;;;11.32;;
75191;SDS011;63771;52.580;9.734;2023-04-07T04:46:55;15.25;;;11.13;;
75191;SDS011;63771;52.580;9.734;2023-04-07T04:49:21;14.50;;;10.32;;
75191;SDS011;63771;52.580;9.734;2023-04-07T04:51:47;15.07;;;11.05;;
75191;SDS011;63771;52.580;9.734;2023-04-07T04:54:12;13.05;;;10.63;;
75191;SDS011;63771;52.580;9.734;2023-04-07T04:56:38;13.02;;;11.45;;
75191;SDS011;63771;52.580;9.734;2023-04-07T04:59:03;12.77;;;11.57;;
75191;SDS011;63771;52.580;9.734;2023-04-07T05:01:29;14.65;;;11.57;;
75191;SDS011;63771;52.580;9.734;2023-04-07T05:03:54;14.35;;;11.63;;
75191;SDS011;63771;52.580;9.734;2023-04-07T05:06:20;13.23;;;11.52;;
75191;SDS011;63771;52.580;9.734;2023-04-07T05:08:45;13.23;;;11.52;;
75191;SDS011;63771;52.580;9.734;2023-04-07T05:11:11;14.05;;;11.23;;
75191;SDS011;63771;52.580;9.734;2023-04-07T05:13:36;14.47;;;12.77;;
75191;SDS011;63771;52.580;9.734;2023-04-07T05:16:01;14.07;;;10.77;;
75191;SDS011;63771;52.580;9.734;2023-04-07T05:18:27;12.43;;;11.07;;
75191;SDS011;63771;52.580;9.734;2023-04-07T05:20:52;16.03;;;11.13;;
75191;SDS011;63771;52.580;9.734;2023-04-07T05:23:17;14.70;;;11.23;;
75191;SDS011;63771;52.580;9.734;2023-04-07T05:25:43;13.10;;;10.50;;
75191;SDS011;63771;52.580;9.734;2023-04-07T05:28:08;14.57;;;11.57;;
75191;SDS011;63771;52.580;9.734;2023-04-07T05:30:33;15.87;;;10.13;;
75191;SDS011;63771;52.580;9.734;2023-04-07T05:32:59;11.98;;;10.10;;
75191;SDS011;63771;52.580;9.734;2023-04-07T05:35:24;13.20;;;11.57;;
75191;SDS011;63771;52.580;9.734;2023-04-07T05:37:49;15.75;;;12.65;;
75191;SDS011;63771;52.580;9.734;2023-04-07T05:40:15;15.07;;;12.17;;
75191;SDS011;63771;52.580;9.734;2023-04-07T05:42:40;12.30;;;10.18;;
75191;SDS011;63771;52.580;9.734;2023-04-07T05:45:07;12.95;;;11.55;;
75191;SDS011;63771;52.580;9.734;2023-04-07T05:47:33;15.98;;;12.13;;
75191;SDS011;63771;52.580;9.734;2023-04-07T05:49:58;14.17;;;11.73;;
75191;SDS011;63771;52.580;9.734;2023-04-07T05:52:24;15.98;;;12.23;;
75191;SDS011;63771;52.580;9.734;2023-04-07T05:54:50;18.67;;;12.30;;
75191;SDS011;63771;52.580;9.734;2023-04-07T05:57:15;20.33;;;12.73;;
75191;SDS011;63771;52.580;9.734;2023-04-07T05:59:40;13.85;;;10.98;;
75191;SDS011;63771;52.580;9.734;2023-04-07T06:02:06;12.97;;;11.00;;
75191;SDS011;63771;52.580;9.734;2023-04-07T06:04:31;14.60;;;12.07;;
75191;SDS011;63771;52.580;9.734;2023-04-07T06:06:59;14.88;;;12.40;;
75191;SDS011;63771;52.580;9.734;2023-04-07T06:09:25;14.50;;;13.07;;
75191;SDS011;63771;52.580;9.734;2023-04-07T06:11:50;14.38;;;11.00;;
75191;SDS011;63771;52.580;9.734;2023-04-07T06:14:16;13.90;;;11.10;;
75191;SDS011;63771;52.580;9.734;2023-04-07T06:16:41;14.98;;;11.10;;
75191;SDS011;63771;52.580;9.734;2023-04-07T06:19:07;11.77;;;10.47;;
75191;SDS011;63771;52.580;9.734;2023-04-07T06:21:32;12.07;;;10.50;;
75191;SDS011;63771;52.580;9.734;2023-04-07T06:23:58;14.02;;;10.75;;
75191;SDS011;63771;52.580;9.734;2023-04-07T06:26:23;13.35;;;9.95;;
75191;SDS011;63771;52.580;9.734;2023-04-07T06:28:49;13.45;;;11.70;;
75191;SDS011;63771;52.580;9.734;2023-04-07T06:31:14;11.55;;;10.40;;
75191;SDS011;63771;52.580;9.734;2023-04-07T06:33:40;12.02;;;9.68;;
75191;SDS011;63771;52.580;9.734;2023-04-07T06:36:05;12.75;;;10.68;;
75191;SDS011;63771;52.580;9.734;2023-04-07T06:38:31;11.18;;;10.02;;
75191;SDS011;63771;52.580;9.734;2023-04-07T06:40:56;10.40;;;9.33;;
75191;SDS011;63771;52.580;9.734;2023-04-07T06:43:22;10.87;;;9.77;;
75191;SDS011;63771;52.580;9.734;2023-04-07T06:45:47;11.70;;;9.57;;
75191;SDS011;63771;52.580;9.734;2023-04-07T06:48:12;10.93;;;9.83;;
75191;SDS011;63771;52.580;9.734;2023-04-07T06:50:38;12.50;;;9.70;;
75191;SDS011;63771;52.580;9.734;2023-04-07T06:53:03;13.13;;;8.93;;
75191;SDS011;63771;52.580;9.734;2023-04-07T06:55:29;9.75;;;8.80;;
75191;SDS011;63771;52.580;9.734;2023-04-07T06:57:55;12.23;;;9.20;;
75191;SDS011;63771;52.580;9.734;2023-04-07T07:00:20;10.35;;;9.32;;
75191;SDS011;63771;52.580;9.734;2023-04-07T07:02:47;10.20;;;8.43;;
75191;SDS011;63771;52.580;9.734;2023-04-07T07:05:13;10.82;;;9.50;;
75191;SDS011;63771;52.580;9.734;2023-04-07T07:07:38;10.90;;;8.07;;
75191;SDS011;63771;52.580;9.734;2023-04-07T07:10:04;9.53;;;8.53;;
75191;SDS011;63771;52.580;9.734;2023-04-07T07:12:29;11.38;;;8.70;;
75191;SDS011;63771;52.580;9.734;2023-04-07T07:14:56;9.82;;;8.93;;
75191;SDS011;63771;52.580;9.734;2023-04-07T07:17:21;10.43;;;8.43;;
75191;SDS011;63771;52.580;9.734;2023-04-07T07:19:47;9.75;;;8.48;;
75191;SDS011;63771;52.580;9.734;2023-04-07T07:22:12;10.63;;;9.47;;
75191;SDS011;63771;52.580;9.734;2023-04-07T07:24:37;10.10;;;8.20;;
75191;SDS011;63771;52.580;9.734;2023-04-07T07:27:02;8.57;;;7.77;;
75191;SDS011;63771;52.580;9.734;2023-04-07T07:29:28;9.57;;;8.70;;
75191;SDS011;63771;52.580;9.734;2023-04-07T07:31:53;10.27;;;8.15;;
75191;SDS011;63771;52.580;9.734;2023-04-07T07:34:19;11.70;;;8.60;;
75191;SDS011;63771;52.580;9.734;2023-04-07T07:36:44;10.60;;;8.43;;
75191;SDS011;63771;52.580;9.734;2023-04-07T07:39:09;9.02;;;8.10;;
75191;SDS011;63771;52.580;9.734;2023-04-07T07:41:35;9.50;;;8.57;;
75191;SDS011;63771;52.580;9.734;2023-04-07T07:44:00;11.50;;;7.63;;
75191;SDS011;63771;52.580;9.734;2023-04-07T07:46:26;9.23;;;8.27;;
75191;SDS011;63771;52.580;9.734;2023-04-07T07:48:51;10.30;;;8.40;;
75191;SDS011;63771;52.580;9.734;2023-04-07T07:51:16;9.35;;;8.32;;
75191;SDS011;63771;52.580;9.734;2023-04-07T07:53:45;8.05;;;7.40;;
75191;SDS011;63771;52.580;9.734;2023-04-07T07:56:10;9.85;;;7.47;;
75191;SDS011;63771;52.580;9.734;2023-04-07T07:58:36;10.35;;;7.70;;
75191;SDS011;63771;52.580;9.734;2023-04-07T08:01:01;8.73;;;7.70;;
75191;SDS011;63771;52.580;9.734;2023-04-07T08:03:26;9.57;;;8.57;;
75191;SDS011;63771;52.580;9.734;2023-04-07T08:05:52;12.13;;;7.47;;
75191;SDS011;63771;52.580;9.734;2023-04-07T08:08:17;7.43;;;6.73;;
75191;SDS011;63771;52.580;9.734;2023-04-07T08:10:42;9.15;;;7.13;;
75191;SDS011;63771;52.580;9.734;2023-04-07T08:13:08;9.40;;;7.63;;
75191;SDS011;63771;52.580;9.734;2023-04-07T08:15:33;10.50;;;7.33;;
75191;SDS011;63771;52.580;9.734;2023-04-07T08:17:59;7.45;;;6.75;;
75191;SDS011;63771;52.580;9.734;2023-04-07T08:20:25;8.25;;;6.63;;
75191;SDS011;63771;52.580;9.734;2023-04-07T08:22:51;9.10;;;7.88;;
75191;SDS011;63771;52.580;9.734;2023-04-07T08:25:16;10.43;;;7.40;;
75191;SDS011;63771;52.580;9.734;2023-04-07T08:27:42;7.78;;;6.80;;
75191;SDS011;63771;52.580;9.734;2023-04-07T08:30:07;9.73;;;6.60;;
75191;SDS011;63771;52.580;9.734;2023-04-07T08:32:33;8.82;;;7.60;;
75191;SDS011;63771;52.580;9.734;2023-04-07T08:35:03;8.70;;;7.80;;
75191;SDS011;63771;52.580;9.734;2023-04-07T08:37:29;8.63;;;7.20;;
75191;SDS011;63771;52.580;9.734;2023-04-07T08:39:55;9.23;;;7.13;;
75191;SDS011;63771;52.580;9.734;2023-04-07T08:42:21;10.10;;;7.50;;
75191;SDS011;63771;52.580;9.734;2023-04-07T08:44:51;8.30;;;7.45;;
75191;SDS011;63771;52.580;9.734;2023-04-07T08:47:19;8.55;;;7.40;;
75191;SDS011;63771;52.580;9.734;2023-04-07T08:49:46;11.00;;;6.80;;
75191;SDS011;63771;52.580;9.734;2023-04-07T08:52:15;9.68;;;7.35;;
75191;SDS011;63771;52.580;9.734;2023-04-07T08:54:44;10.10;;;7.18;;
75191;SDS011;63771;52.580;9.734;2023-04-07T08:57:10;8.20;;;6.32;;
75191;SDS011;63771;52.580;9.734;2023-04-07T08:59:37;9.05;;;6.97;;
75191;SDS011;63771;52.580;9.734;2023-04-07T09:02:05;12.80;;;6.43;;
75191;SDS011;63771;52.580;9.734;2023-04-07T09:04:30;9.13;;;6.50;;
75191;SDS011;63771;52.580;9.734;2023-04-07T09:06:56;7.20;;;6.47;;
75191;SDS011;63771;52.580;9.734;2023-04-07T09:09:21;9.67;;;6.87;;
75191;SDS011;63771;52.580;9.734;2023-04-07T09:11:48;7.60;;;6.15;;
75191;SDS011;63771;52.580;9.734;2023-04-07T09:14:13;7.80;;;6.23;;
75191;SDS011;63771;52.580;9.734;2023-04-07T09:16:39;9.40;;;6.38;;
75191;SDS011;63771;52.580;9.734;2023-04-07T09:19:04;7.53;;;6.18;;
75191;SDS011;63771;52.580;9.734;2023-04-07T09:21:50;6.65;;;6.05;;
75191;SDS011;63771;52.580;9.734;2023-04-07T09:24:20;8.93;;;5.47;;
75191;SDS011;63771;52.580;9.734;2023-04-07T09:27:07;7.30;;;5.85;;
75191;SDS011;63771;52.580;9.734;2023-04-07T09:29:37;9.00;;;6.10;;
75191;SDS011;63771;52.580;9.734;2023-04-07T09:32:06;9.57;;;6.63;;
75191;SDS011;63771;52.580;9.734;2023-04-07T09:34:32;7.20;;;5.97;;
75191;SDS011;63771;52.580;9.734;2023-04-07T09:37:02;9.07;;;5.80;;
75191;SDS011;63771;52.580;9.734;2023-04-07T09:39:29;7.38;;;5.47;;
75191;SDS011;63771;52.580;9.734;2023-04-07T09:41:55;7.07;;;6.13;;
75191;SDS011;63771;52.580;9.734;2023-04-07T09:44:22;6.63;;;5.45;;
75191;SDS011;63771;52.580;9.734;2023-04-07T09:49:13;10.32;;;5.90;;
75191;SDS011;63771;52.580;9.734;2023-04-07T09:51:50;7.75;;;6.03;;
75191;SDS011;63771;52.580;9.734;2023-04-07T09:54:20;6.68;;;5.55;;
75191;SDS011;63771;52.580;9.734;2023-04-07T09:56:57;9.30;;;5.95;;
75191;SDS011;63771;52.580;9.734;2023-04-07T09:59:25;6.45;;;5.78;;
75191;SDS011;63771;52.580;9.734;2023-04-07T10:01:52;11.35;;;6.32;;
75191;SDS011;63771;52.580;9.734;2023-04-07T10:04:18;7.30;;;5.80;;
75191;SDS011;63771;52.580;9.734;2023-04-07T10:06:44;6.95;;;5.28;;
75191;SDS011;63771;52.580;9.734;2023-04-07T10:09:11;7.75;;;5.90;;
75191;SDS011;63771;52.580;9.734;2023-04-07T10:11:37;7.82;;;5.88;;
75191;SDS011;63771;52.580;9.734;2023-04-07T10:14:03;7.70;;;5.90;;
75191;SDS011;63771;52.580;9.734;2023-04-07T10:16:29;7.13;;;6.25;;
75191;SDS011;63771;52.580;9.734;2023-04-07T10:18:55;7.03;;;5.47;;
75191;SDS011;63771;52.580;9.734;2023-04-07T10:21:20;7.28;;;5.68;;
75191;SDS011;63771;52.580;9.734;2023-04-07T10:23:48;6.53;;;5.82;;
75191;SDS011;63771;52.580;9.734;2023-04-07T10:26:25;8.32;;;6.38;;
75191;SDS011;63771;52.580;9.734;2023-04-07T10:28:56;6.50;;;5.85;;
75191;SDS011;63771;52.580;9.734;2023-04-07T10:31:26;8.13;;;6.25;;
75191;SDS011;63771;52.580;9.734;2023-04-07T10:33:52;6.82;;;5.82;;
75191;SDS011;63771;52.580;9.734;2023-04-07T10:36:19;8.40;;;6.10;;
75191;SDS011;63771;52.580;9.734;2023-04-07T10:44:09;8.60;;;6.53;;
75191;SDS011;63771;52.580;9.734;2023-04-07T10:47:01;7.03;;;5.97;;
75191;SDS011;63771;52.580;9.734;2023-04-07T10:49:28;9.32;;;6.57;;
75191;SDS011;63771;52.580;9.734;2023-04-07T10:54:38;7.20;;;6.43;;
75191;SDS011;63771;52.580;9.734;2023-04-07T10:57:06;11.43;;;6.00;;
75191;SDS011;63771;52.580;9.734;2023-04-07T10:59:36;7.75;;;5.78;;
75191;SDS011;63771;52.580;9.734;2023-04-07T11:04:38;7.85;;;6.32;;
75191;SDS011;63771;52.580;9.734;2023-04-07T11:07:11;7.90;;;6.53;;
75191;SDS011;63771;52.580;9.734;2023-04-07T11:09:37;6.82;;;5.78;;
75191;SDS011;63771;52.580;9.734;2023-04-07T11:12:03;7.33;;;5.53;;
75191;SDS011;63771;52.580;9.734;2023-04-07T11:14:29;7.35;;;5.90;;
75191;SDS011;63771;52.580;9.734;2023-04-07T11:16:57;8.82;;;6.00;;
75191;SDS011;63771;52.580;9.734;2023-04-07T11:21:50;9.07;;;6.00;;
75191;SDS011;63771;52.580;9.734;2023-04-07T11:24:39;7.72;;;5.90;;
75191;SDS011;63771;52.580;9.734;2023-04-07T11:27:05;7.57;;;5.40;;
75191;SDS011;63771;52.580;9.734;2023-04-07T11:29:36;7.55;;;5.72;;
75191;SDS011;63771;52.580;9.734;2023-04-07T11:32:01;5.78;;;5.18;;
75191;SDS011;63771;52.580;9.734;2023-04-07T11:34:33;7.47;;;5.75;;
75191;SDS011;63771;52.580;9.734;2023-04-07T11:39:55;8.05;;;6.00;;
75191;SDS011;63771;52.580;9.734;2023-04-07T11:42:34;7.18;;;5.78;;
75191;SDS011;63771;52.580;9.734;2023-04-07T11:45:01;9.23;;;6.45;;
75191;SDS011;63771;52.580;9.734;2023-04-07T11:47:35;6.53;;;5.93;;
75191;SDS011;63771;52.580;9.734;2023-04-07T11:50:02;8.85;;;6.00;;
75191;SDS011;63771;52.580;9.734;2023-04-07T11:52:27;7.30;;;5.60;;
75191;SDS011;63771;52.580;9.734;2023-04-07T11:54:53;7.00;;;5.82;;
75191;SDS011;63771;52.580;9.734;2023-04-07T11:57:25;7.28;;;5.88;;
75191;SDS011;63771;52.580;9.734;2023-04-07T12:00:07;9.05;;;6.47;;
75191;SDS011;63771;52.580;9.734;2023-04-07T12:02:34;6.28;;;5.65;;
75191;SDS011;63771;52.580;9.734;2023-04-07T12:05:01;6.85;;;6.18;;
75191;SDS011;63771;52.580;9.734;2023-04-07T12:07:26;7.95;;;6.05;;
75191;SDS011;63771;52.580;9.734;2023-04-07T12:09:54;6.93;;;5.30;;
75191;SDS011;63771;52.580;9.734;2023-04-07T12:12:28;6.40;;;5.25;;
75191;SDS011;63771;52.580;9.734;2023-04-07T12:14:54;6.55;;;5.22;;
75191;SDS011;63771;52.580;9.734;2023-04-07T12:17:26;5.78;;;4.90;;
75191;SDS011;63771;52.580;9.734;2023-04-07T12:19:52;9.65;;;5.95;;
75191;SDS011;63771;52.580;9.734;2023-04-07T12:22:18;6.90;;;5.53;;
75191;SDS011;63771;52.580;9.734;2023-04-07T12:24:43;11.77;;;6.07;;
75191;SDS011;63771;52.580;9.734;2023-04-07T12:27:09;11.02;;;5.85;;
75191;SDS011;63771;52.580;9.734;2023-04-07T12:29:35;7.65;;;5.30;;
75191;SDS011;63771;52.580;9.734;2023-04-07T12:32:01;8.02;;;6.03;;
75191;SDS011;63771;52.580;9.734;2023-04-07T12:34:29;5.57;;;4.85;;
75191;SDS011;63771;52.580;9.734;2023-04-07T12:36:54;6.68;;;5.15;;
75191;SDS011;63771;52.580;9.734;2023-04-07T12:39:20;7.73;;;4.53;;
75191;SDS011;63771;52.580;9.734;2023-04-07T12:41:45;5.82;;;5.05;;
75191;SDS011;63771;52.580;9.734;2023-04-07T12:44:12;7.22;;;5.82;;
75191;SDS011;63771;52.580;9.734;2023-04-07T12:46:38;5.40;;;4.90;;
75191;SDS011;63771;52.580;9.734;2023-04-07T12:49:03;6.73;;;5.07;;
75191;SDS011;63771;52.580;9.734;2023-04-07T12:51:29;5.77;;;4.83;;
75191;SDS011;63771;52.580;9.734;2023-04-07T12:53:55;5.80;;;5.20;;
75191;SDS011;63771;52.580;9.734;2023-04-07T12:56:21;4.85;;;4.45;;
75191;SDS011;63771;52.580;9.734;2023-04-07T12:58:46;6.35;;;5.45;;
75191;SDS011;63771;52.580;9.734;2023-04-07T13:01:12;6.15;;;4.45;;
75191;SDS011;63771;52.580;9.734;2023-04-07T13:03:38;5.53;;;4.63;;
75191;SDS011;63771;52.580;9.734;2023-04-07T13:06:04;5.40;;;4.90;;
75191;SDS011;63771;52.580;9.734;2023-04-07T13:08:29;8.98;;;5.90;;
75191;SDS011;63771;52.580;9.734;2023-04-07T13:10:55;7.28;;;5.38;;
75191;SDS011;63771;52.580;9.734;2023-04-07T13:13:21;6.65;;;5.00;;
75191;SDS011;63771;52.580;9.734;2023-04-07T13:15:46;5.45;;;4.75;;
75191;SDS011;63771;52.580;9.734;2023-04-07T13:18:12;6.07;;;4.77;;
75191;SDS011;63771;52.580;9.734;2023-04-07T13:20:37;6.37;;;5.33;;
75191;SDS011;63771;52.580;9.734;2023-04-07T13:23:02;9.00;;;5.03;;
75191;SDS011;63771;52.580;9.734;2023-04-07T13:25:28;5.70;;;5.15;;
75191;SDS011;63771;52.580;9.734;2023-04-07T13:27:53;6.97;;;5.63;;
75191;SDS011;63771;52.580;9.734;2023-04-07T13:30:19;6.57;;;5.55;;
75191;SDS011;63771;52.580;9.734;2023-04-07T13:32:44;7.20;;;6.43;;
75191;SDS011;63771;52.580;9.734;2023-04-07T13:35:14;6.82;;;4.90;;
75191;SDS011;63771;52.580;9.734;2023-04-07T13:37:40;5.25;;;4.57;;
75191;SDS011;63771;52.580;9.734;2023-04-07T13:40:07;6.20;;;5.47;;
75191;SDS011;63771;52.580;9.734;2023-04-07T13:42:33;6.90;;;5.35;;
75191;SDS011;63771;52.580;9.734;2023-04-07T13:44:58;6.87;;;5.33;;
75191;SDS011;63771;52.580;9.734;2023-04-07T13:47:23;9.85;;;5.68;;
75191;SDS011;63771;52.580;9.734;2023-04-07T13:49:49;6.63;;;5.13;;
75191;SDS011;63771;52.580;9.734;2023-04-07T13:52:16;6.85;;;5.20;;
75191;SDS011;63771;52.580;9.734;2023-04-07T13:54:42;8.23;;;5.13;;
75191;SDS011;63771;52.580;9.734;2023-04-07T13:57:08;6.30;;;4.88;;
75191;SDS011;63771;52.580;9.734;2023-04-07T13:59:33;5.40;;;4.78;;
75191;SDS011;63771;52.580;9.734;2023-04-07T14:01:58;8.03;;;5.47;;
75191;SDS011;63771;52.580;9.734;2023-04-07T14:04:24;6.37;;;5.30;;
75191;SDS011;63771;52.580;9.734;2023-04-07T14:06:49;5.82;;;5.15;;
75191;SDS011;63771;52.580;9.734;2023-04-07T14:09:14;6.07;;;4.90;;
75191;SDS011;63771;52.580;9.734;2023-04-07T14:11:40;6.38;;;5.43;;
75191;SDS011;63771;52.580;9.734;2023-04-07T14:14:05;5.65;;;4.68;;
75191;SDS011;63771;52.580;9.734;2023-04-07T14:16:31;5.65;;;5.07;;
75191;SDS011;63771;52.580;9.734;2023-04-07T14:18:56;4.72;;;3.97;;
75191;SDS011;63771;52.580;9.734;2023-04-07T14:21:22;8.18;;;4.80;;
75191;SDS011;63771;52.580;9.734;2023-04-07T14:23:48;5.78;;;4.47;;
75191;SDS011;63771;52.580;9.734;2023-04-07T14:26:13;5.38;;;4.50;;
75191;SDS011;63771;52.580;9.734;2023-04-07T14:28:39;6.00;;;4.40;;
75191;SDS011;63771;52.580;9.734;2023-04-07T14:31:04;6.20;;;4.82;;
75191;SDS011;63771;52.580;9.734;2023-04-07T14:33:30;5.88;;;5.15;;
75191;SDS011;63771;52.580;9.734;2023-04-07T14:35:55;4.88;;;4.47;;
75191;SDS011;63771;52.580;9.734;2023-04-07T14:38:21;5.05;;;4.30;;
75191;SDS011;63771;52.580;9.734;2023-04-07T14:40:48;5.18;;;4.70;;
75191;SDS011;63771;52.580;9.734;2023-04-07T14:43:14;5.38;;;4.43;;
75191;SDS011;63771;52.580;9.734;2023-04-07T14:45:39;3.97;;;3.63;;
75191;SDS011;63771;52.580;9.734;2023-04-07T14:48:04;4.63;;;4.22;;
75191;SDS011;63771;52.580;9.734;2023-04-07T14:50:31;7.95;;;4.03;;
75191;SDS011;63771;52.580;9.734;2023-04-07T14:52:57;3.75;;;3.40;;
75191;SDS011;63771;52.580;9.734;2023-04-07T14:55:22;6.30;;;3.77;;
75191;SDS011;63771;52.580;9.734;2023-04-07T14:57:48;4.82;;;4.10;;